Marengo, Indiana
Current Conditions -  °F | °C
As of 5:35 AM on Tuesday 27 Jan 2015 (Local Time) from KHNB Reporting Station
Overcast Overcast  
Wind Chill: 30°   Ceiling: 500
Heat Index: 30°   Visibility: 5mi
Dew Point: 27°   Wind: 3mph
Humidity: 86%   Direction: 60°ENE
Pressure: 29.93"   Gusts: NA
Location:  38.37°N, 86.34°W
Report Text: KHNB 271035Z AUTO 06003KT 5SM OVC005 M01/M03 A2993 RMK AO1
Loading
Personal Weather Stations






























Interactive Weather Map New forecast layout! Learn more

10-Day Weather Forecast

Advertisements
Track Severe Weather on mobile